createdAt,value
2018-03-22T00:01:08.062Z,101523.34
2018-03-22T00:03:34.840Z,101519.45
2018-03-22T00:06:02.545Z,101520.74
2018-03-22T00:08:29.294Z,101524.59
2018-03-22T00:10:56.075Z,101510.88
2018-03-22T00:13:22.874Z,101508.29
2018-03-22T00:15:49.668Z,101500.56
2018-03-22T00:18:17.185Z,101504.42
2018-03-22T00:20:43.939Z,101494.55
2018-03-22T00:23:10.689Z,101487.70
2018-03-22T00:25:37.700Z,101487.69
2018-03-22T00:28:04.439Z,101480.39
2018-03-22T00:30:31.251Z,101482.55
2018-03-22T00:32:58.686Z,101479.98
2018-03-22T00:35:26.454Z,101476.11
2018-03-22T00:37:53.250Z,101479.97
2018-03-22T00:40:19.955Z,101468.41
2018-03-22T00:42:46.776Z,101469.23
2018-03-22T00:45:13.500Z,101464.94
2018-03-22T00:47:40.872Z,101455.48
2018-03-22T00:50:09.282Z,101461.08
2018-03-22T00:52:36.048Z,101451.63
2018-03-22T00:55:02.858Z,101443.05
2018-03-22T00:57:29.566Z,101433.19
2018-03-22T00:59:56.280Z,101437.92
2018-03-22T01:02:23.017Z,101430.63
2018-03-22T01:04:50.529Z,101424.16
2018-03-22T01:07:17.315Z,101418.58
2018-03-22T01:09:44.131Z,101415.17
2018-03-22T01:12:11.607Z,101411.28
2018-03-22T01:14:38.832Z,101403.55
2018-03-22T01:17:05.647Z,101400.99
2018-03-22T01:19:33.060Z,101395.40
2018-03-22T01:21:59.813Z,101387.66
2018-03-22T01:24:26.568Z,101381.66
2018-03-22T01:26:54.007Z,101374.38
2018-03-22T01:29:20.796Z,101367.06
2018-03-22T01:31:47.564Z,101367.91
2018-03-22T01:34:14.399Z,101364.88
2018-03-22T01:36:41.186Z,101353.73
2018-03-22T01:39:08.821Z,101346.44
2018-03-22T01:41:35.528Z,101344.28
2018-03-22T01:44:02.320Z,101336.98
2018-03-22T01:46:29.117Z,101324.55
2018-03-22T01:48:55.845Z,101317.66
2018-03-22T01:51:22.608Z,101314.74
2018-03-22T01:53:49.374Z,101299.66
2018-03-22T01:56:16.173Z,101300.49
2018-03-22T01:58:42.862Z,101282.49
2018-03-22T02:01:09.598Z,101282.44
2018-03-22T02:03:37.045Z,101276.95
2018-03-22T02:06:03.816Z,101275.62
2018-03-22T02:08:30.542Z,101265.74
2018-03-22T02:10:57.322Z,101262.75
2018-03-22T02:13:24.076Z,101251.54
2018-03-22T02:15:50.875Z,101245.11
2018-03-22T02:18:17.628Z,101240.37
2018-03-22T02:20:44.398Z,101244.67
2018-03-22T02:23:11.140Z,101238.67
2018-03-22T02:25:37.867Z,101241.23
2018-03-22T02:28:04.598Z,101242.55
2018-03-22T02:30:31.381Z,101237.44
2018-03-22T02:32:58.187Z,101240.85
2018-03-22T02:35:24.999Z,101227.96
2018-03-22T02:40:48.704Z,101214.22
2018-03-22T02:43:15.514Z,101206.51
2018-03-22T02:45:42.272Z,101219.80
2018-03-22T02:48:09.387Z,101213.80
2018-03-22T02:50:36.135Z,101219.39
2018-03-22T02:53:03.610Z,101217.25
2018-03-22T02:55:30.345Z,101213.84
2018-03-22T02:57:57.121Z,101206.48
2018-03-22T03:00:25.221Z,101197.07
2018-03-22T03:02:52.988Z,101198.73
2018-03-22T03:05:19.740Z,101197.05
2018-03-22T03:07:46.599Z,101188.48
2018-03-22T03:10:14.094Z,101180.33
2018-03-22T03:12:40.859Z,101165.73
2018-03-22T03:15:07.606Z,101161.88
2018-03-22T03:17:34.342Z,101160.14
2018-03-22T03:20:02.923Z,101154.14
2018-03-22T03:22:29.711Z,101147.72
2018-03-22T03:24:56.465Z,101149.07
2018-03-22T03:27:23.262Z,101139.57
2018-03-22T03:29:49.972Z,101140.38
2018-03-22T03:32:16.731Z,101137.80
2018-03-22T03:34:43.503Z,101139.57
2018-03-22T03:37:10.272Z,101132.73
2018-03-22T03:39:37.068Z,101129.70
2018-03-22T03:42:03.860Z,101130.09
2018-03-22T03:44:30.534Z,101114.65
2018-03-22T03:46:57.234Z,101106.93
2018-03-22T03:49:23.939Z,101105.63
2018-03-22T03:51:50.672Z,101103.12
2018-03-22T03:54:17.427Z,101100.56
2018-03-22T03:56:44.150Z,101089.41
2018-03-22T03:59:10.930Z,101081.30
2018-03-22T04:01:37.694Z,101084.61
2018-03-22T04:04:04.505Z,101077.82
2018-03-22T04:06:32.029Z,101089.84
2018-03-22T04:08:58.841Z,101089.84
2018-03-22T04:11:25.571Z,101086.78
2018-03-22T04:13:52.335Z,101090.64
2018-03-22T04:16:19.088Z,101088.45
2018-03-22T04:18:46.433Z,101085.08
2018-03-22T04:21:13.164Z,101076.05
2018-03-22T04:23:40.851Z,101068.69
2018-03-22T04:26:07.588Z,101066.18
2018-03-22T04:28:34.312Z,101057.14
2018-03-22T04:31:02.057Z,101058.48
2018-03-22T04:33:28.882Z,101050.80
2018-03-22T04:35:55.661Z,101053.87
2018-03-22T04:38:23.140Z,101058.15
2018-03-22T04:40:49.942Z,101053.80
2018-03-22T04:43:16.747Z,101050.33
2018-03-22T04:45:43.489Z,101050.25
2018-03-22T04:48:11.003Z,101052.90
2018-03-22T04:50:37.765Z,101033.53
2018-03-22T04:53:04.560Z,101038.35
2018-03-22T04:55:32.281Z,101028.48
2018-03-22T04:57:59.010Z,101021.09
2018-03-22T05:00:25.821Z,101017.22
2018-03-22T05:02:52.650Z,101008.69
2018-03-22T05:05:19.412Z,101000.53
2018-03-22T05:07:46.807Z,100997.91
2018-03-22T05:10:13.530Z,101000.73
2018-03-22T05:12:41.035Z,100995.94
2018-03-22T05:15:08.594Z,100987.22
2018-03-22T05:17:35.380Z,100993.44
2018-03-22T05:20:02.162Z,100985.59
2018-03-22T05:22:28.959Z,100992.61
2018-03-22T05:24:55.718Z,100983.06
2018-03-22T05:27:22.464Z,100981.33
2018-03-22T05:29:49.213Z,100971.91
2018-03-22T05:32:16.754Z,100966.66
2018-03-22T05:34:43.437Z,100959.86
2018-03-22T05:37:11.480Z,100958.98
2018-03-22T05:39:38.282Z,100955.52
2018-03-22T05:42:05.073Z,100949.09
2018-03-22T05:44:32.497Z,100956.45
2018-03-22T05:46:59.221Z,100956.41
2018-03-22T05:49:26.651Z,100948.70
2018-03-22T05:51:53.511Z,100942.88
2018-03-22T05:54:21.164Z,100938.00
2018-03-22T05:56:48.727Z,100937.52
2018-03-22T05:59:15.623Z,100930.25
2018-03-22T06:01:42.437Z,100940.95
2018-03-22T06:04:09.264Z,100939.25
2018-03-22T06:06:36.018Z,100944.92
2018-03-22T06:09:03.606Z,100944.54
2018-03-22T06:11:30.361Z,100940.14
2018-03-22T06:13:57.197Z,100929.84
2018-03-22T06:16:23.956Z,100922.53
2018-03-22T06:18:52.462Z,100924.98
2018-03-22T06:21:19.780Z,100914.55
2018-03-22T06:23:47.354Z,100916.69
2018-03-22T06:26:14.236Z,100912.03
2018-03-22T06:28:42.029Z,100911.84
2018-03-22T06:31:09.127Z,100899.97
2018-03-22T06:33:35.936Z,100892.67
2018-03-22T06:36:02.685Z,100899.97
2018-03-22T06:38:29.606Z,100898.73
2018-03-22T06:40:56.225Z,100892.99
2018-03-22T06:43:23.130Z,100893.16
2018-03-22T06:45:50.617Z,100885.90
2018-03-22T06:48:17.427Z,100884.11
2018-03-22T06:50:44.132Z,100878.98
2018-03-22T06:53:11.605Z,100882.11
2018-03-22T06:55:38.983Z,100870.48
2018-03-22T06:58:05.709Z,100875.08
2018-03-22T07:00:32.411Z,100871.98
2018-03-22T07:02:59.173Z,100878.35
2018-03-22T07:05:25.812Z,100874.42
2018-03-22T07:07:53.815Z,100877.48
2018-03-22T07:10:20.539Z,100872.61
2018-03-22T07:12:47.267Z,100877.80
2018-03-22T07:15:14.165Z,100871.70
2018-03-22T07:17:40.944Z,100862.03
2018-03-22T07:20:07.716Z,100856.00
2018-03-22T07:22:34.532Z,100864.25
2018-03-22T07:25:01.241Z,100867.20
2018-03-22T07:27:28.080Z,100865.77
2018-03-22T07:29:54.740Z,100877.38
2018-03-22T07:32:22.136Z,100869.17
2018-03-22T07:34:48.898Z,100859.28
2018-03-22T07:37:15.708Z,100856.29
2018-03-22T07:39:42.449Z,100855.59
2018-03-22T07:42:09.259Z,100851.27
2018-03-22T07:44:40.132Z,100850.11
2018-03-22T07:47:06.954Z,100849.23
2018-03-22T07:49:33.709Z,100843.90
2018-03-22T07:52:00.499Z,100847.64
2018-03-22T07:54:27.294Z,100840.78
2018-03-22T07:56:54.086Z,100838.26
2018-03-22T07:59:20.827Z,100841.75
2018-03-22T08:01:47.588Z,100838.75
2018-03-22T08:04:14.330Z,100828.86
2018-03-22T08:06:41.043Z,100828.77
2018-03-22T08:09:08.780Z,100823.02
2018-03-22T08:11:35.487Z,100808.23
2018-03-22T08:14:03.565Z,100809.27
2018-03-22T08:16:30.322Z,100820.49
2018-03-22T08:18:57.598Z,100818.22
2018-03-22T08:21:24.361Z,100812.67
2018-03-22T08:23:51.132Z,100810.02
2018-03-22T08:26:18.127Z,100809.61
2018-03-22T08:28:45.598Z,100797.52
2018-03-22T08:31:12.321Z,100788.19
2018-03-22T08:33:39.051Z,100796.80
2018-03-22T08:36:06.480Z,100787.28
2018-03-22T08:38:33.254Z,100785.86
2018-03-22T08:40:59.984Z,100785.02
2018-03-22T08:43:26.734Z,100781.55
2018-03-22T08:45:53.460Z,100778.16
2018-03-22T08:48:20.284Z,100765.23
2018-03-22T08:50:47.004Z,100764.52
2018-03-22T08:53:14.441Z,100762.22
2018-03-22T08:55:41.205Z,100761.44
2018-03-22T08:58:07.934Z,100763.56
2018-03-22T09:00:35.415Z,100748.55
2018-03-22T09:03:03.165Z,100754.55
2018-03-22T09:05:29.951Z,100755.35
2018-03-22T09:07:56.724Z,100755.28
2018-03-22T09:10:23.490Z,100753.13
2018-03-22T09:12:50.251Z,100761.72
2018-03-22T09:15:17.053Z,100758.74
2018-03-22T09:17:43.806Z,100759.57
2018-03-22T09:20:10.457Z,100766.31
2018-03-22T09:22:38.049Z,100770.23
2018-03-22T09:25:04.763Z,100766.43
2018-03-22T09:27:31.493Z,100763.49
2018-03-22T09:29:58.237Z,100758.00
2018-03-22T09:32:25.786Z,100758.65
2018-03-22T09:34:52.548Z,100752.23
2018-03-22T09:37:19.325Z,100749.13
2018-03-22T09:39:46.747Z,100747.38
2018-03-22T09:42:13.462Z,100746.17
2018-03-22T09:44:40.208Z,100744.39
2018-03-22T09:47:06.882Z,100738.34
2018-03-22T09:49:35.109Z,100743.51
2018-03-22T09:52:01.934Z,100739.52
2018-03-22T09:54:28.716Z,100727.92
2018-03-22T09:56:56.435Z,100736.10
2018-03-22T09:59:23.921Z,100729.75
2018-03-22T10:01:51.373Z,100732.58
2018-03-22T10:04:18.706Z,100728.66
2018-03-22T10:06:45.510Z,100730.86
2018-03-22T10:09:12.165Z,100722.22
2018-03-22T10:11:38.836Z,100723.49
2018-03-22T10:14:05.531Z,100719.61
2018-03-22T10:16:50.345Z,100727.31
2018-03-22T10:19:17.336Z,100726.45
2018-03-22T10:21:44.367Z,100724.23
2018-03-22T10:24:11.064Z,100717.84
2018-03-22T10:26:37.748Z,100715.67
2018-03-22T10:29:04.436Z,100718.28
2018-03-22T10:31:31.216Z,100709.14
2018-03-22T10:33:57.903Z,100708.34
2018-03-22T10:36:24.667Z,100701.39
2018-03-22T10:38:51.423Z,100701.45
2018-03-22T10:41:19.569Z,100696.69
2018-03-22T10:43:46.430Z,100699.20
2018-03-22T10:46:13.269Z,100685.01
2018-03-22T10:48:40.728Z,100672.14
2018-03-22T10:51:07.406Z,100671.75
2018-03-22T10:53:34.789Z,100671.20
2018-03-22T10:56:01.531Z,100676.72
2018-03-22T10:58:28.217Z,100679.73
2018-03-22T11:01:00.964Z,100680.62
2018-03-22T11:03:27.670Z,100681.37
2018-03-22T11:05:54.354Z,100678.80
2018-03-22T11:08:21.060Z,100677.89
2018-03-22T11:10:48.508Z,100676.21
2018-03-22T11:13:15.986Z,100677.87
2018-03-22T11:15:43.367Z,100669.62
2018-03-22T11:18:10.091Z,100674.80
2018-03-22T11:20:36.754Z,100679.09
2018-03-22T11:23:03.520Z,100665.77
2018-03-22T11:25:30.313Z,100666.98
2018-03-22T11:27:57.731Z,100661.02
2018-03-22T11:30:24.428Z,100657.08
2018-03-22T11:32:51.092Z,100657.92
2018-03-22T11:35:17.792Z,100660.11
2018-03-22T11:37:45.205Z,100653.21
2018-03-22T11:40:11.950Z,100643.80
2018-03-22T11:42:38.704Z,100644.06
2018-03-22T11:45:06.104Z,100637.21
2018-03-22T11:47:32.908Z,100634.76
2018-03-22T11:49:59.759Z,100632.84
2018-03-22T11:52:26.768Z,100640.16
2018-03-22T11:54:53.493Z,100641.73
2018-03-22T11:57:20.811Z,100636.22
2018-03-22T11:59:47.589Z,100638.56
2018-03-22T12:02:14.296Z,100632.66
2018-03-22T12:04:41.084Z,100636.87
2018-03-22T12:07:08.530Z,100636.83
2018-03-22T12:09:35.268Z,100629.23
2018-03-22T12:12:02.032Z,100635.13
2018-03-22T12:14:28.835Z,100635.05
2018-03-22T12:16:55.460Z,100631.94
2018-03-22T12:19:22.266Z,100635.92
2018-03-22T12:21:49.599Z,100624.70
2018-03-22T12:24:16.511Z,100625.48
2018-03-22T12:26:43.862Z,100619.28
2018-03-22T12:29:11.332Z,100612.57
2018-03-22T12:31:38.076Z,100615.41
2018-03-22T12:34:04.873Z,100611.64
2018-03-22T12:36:31.586Z,100596.53
2018-03-22T12:38:58.319Z,100607.37
2018-03-22T12:41:25.107Z,100606.08
2018-03-22T12:43:51.930Z,100606.86
2018-03-22T12:46:19.543Z,100603.44
2018-03-22T12:48:46.305Z,100602.54
2018-03-22T12:51:14.821Z,100604.50
2018-03-22T12:53:41.566Z,100597.19
2018-03-22T12:56:08.322Z,100593.00
2018-03-22T12:58:35.684Z,100596.45
2018-03-22T13:01:03.252Z,100588.41
2018-03-22T13:03:30.035Z,100589.20
2018-03-22T13:05:56.973Z,100582.70
2018-03-22T13:08:23.821Z,100578.21
2018-03-22T13:10:50.536Z,100575.58
2018-03-22T13:13:17.385Z,100570.38
2018-03-22T13:15:44.788Z,100572.13
2018-03-22T13:18:13.843Z,100572.27
2018-03-22T13:20:43.911Z,100571.38
2018-03-22T13:23:12.288Z,100563.08
2018-03-22T13:25:42.199Z,100568.10
2018-03-22T13:28:10.508Z,100556.94
2018-03-22T13:30:38.752Z,100553.94
2018-03-22T13:33:06.946Z,100555.22
2018-03-22T13:35:35.340Z,100555.06
2018-03-22T13:38:03.762Z,100553.07
2018-03-22T13:40:32.246Z,100549.21
2018-03-22T13:43:00.612Z,100553.09
2018-03-22T13:45:28.928Z,100554.16
2018-03-22T13:47:57.347Z,100548.71
2018-03-22T13:50:25.335Z,100551.16
2018-03-22T13:52:53.707Z,100547.91
2018-03-22T13:55:21.994Z,100547.34
2018-03-22T13:57:50.308Z,100551.12
2018-03-22T14:00:18.643Z,100546.13
2018-03-22T14:02:46.313Z,100544.84
2018-03-22T14:05:15.166Z,100541.84
2018-03-22T14:07:44.579Z,100547.91
2018-03-22T14:10:14.421Z,100550.25
2018-03-22T14:12:43.611Z,100549.46
2018-03-22T14:15:12.189Z,100548.53
2018-03-22T14:17:40.614Z,100535.59
2018-03-22T14:20:09.214Z,100542.41
2018-03-22T14:22:37.668Z,100532.11
2018-03-22T14:25:06.935Z,100523.06
2018-03-22T14:27:35.410Z,100519.94
2018-03-22T14:30:03.934Z,100516.34
2018-03-22T14:32:32.400Z,100508.19
2018-03-22T14:35:01.725Z,100511.40
2018-03-22T14:37:31.262Z,100509.39
2018-03-22T14:40:00.449Z,100507.03
2018-03-22T14:42:29.020Z,100508.36
2018-03-22T14:44:57.448Z,100501.42
2018-03-22T14:47:27.619Z,100503.69
2018-03-22T14:49:56.023Z,100496.33
2018-03-22T14:52:25.603Z,100499.42
2018-03-22T14:54:53.956Z,100499.13
2018-03-22T14:57:22.383Z,100496.97
2018-03-22T14:59:50.698Z,100495.72
2018-03-22T15:02:19.270Z,100492.61
2018-03-22T15:04:47.652Z,100493.81
2018-03-22T15:07:16.989Z,100495.69
2018-03-22T15:09:46.465Z,100491.47
2018-03-22T15:12:16.272Z,100485.43
2018-03-22T15:14:45.242Z,100487.86
2018-03-22T15:17:14.552Z,100480.78
2018-03-22T15:19:43.556Z,100481.17
2018-03-22T15:22:13.651Z,100473.55
2018-03-22T15:24:42.154Z,100476.02
2018-03-22T15:27:10.746Z,100474.34
2018-03-22T15:29:39.143Z,100470.98
2018-03-22T15:32:07.438Z,100473.88
2018-03-22T15:34:35.935Z,100479.27
2018-03-22T15:37:05.472Z,100481.17
2018-03-22T15:39:34.825Z,100474.31
2018-03-22T15:42:03.310Z,100479.32
2018-03-22T15:44:31.675Z,100477.90
2018-03-22T15:47:00.736Z,100474.02
2018-03-22T15:49:29.154Z,100476.16
2018-03-22T15:51:57.710Z,100473.89
2018-03-22T15:54:27.159Z,100479.91
2018-03-22T15:56:56.479Z,100477.00
2018-03-22T15:59:25.967Z,100482.72
2018-03-22T16:01:54.486Z,100486.12
2018-03-22T16:04:24.046Z,100487.64
2018-03-22T16:06:52.607Z,100485.93
2018-03-22T16:09:21.034Z,100485.48
2018-03-22T16:11:49.536Z,100487.52
2018-03-22T16:14:18.772Z,100486.49
2018-03-22T16:16:47.342Z,100480.63
2018-03-22T16:19:16.866Z,100484.77
2018-03-22T16:21:46.153Z,100482.62
2018-03-22T16:24:17.530Z,100490.65
2018-03-22T16:26:46.951Z,100491.23
2018-03-22T16:29:17.089Z,100494.45
2018-03-22T16:31:46.224Z,100487.14
2018-03-22T16:34:16.284Z,100486.62
2018-03-22T16:36:46.449Z,100494.52
2018-03-22T16:39:15.939Z,100486.27
2018-03-22T16:41:46.193Z,100483.06
2018-03-22T16:44:16.356Z,100487.63
2018-03-22T16:46:45.594Z,100484.53
2018-03-22T16:49:14.422Z,100481.16
2018-03-22T16:51:43.448Z,100485.36
2018-03-22T16:54:12.072Z,100487.37
2018-03-22T16:56:41.680Z,100486.78
2018-03-22T16:59:10.497Z,100493.41
2018-03-22T17:01:39.143Z,100493.31
2018-03-22T17:04:08.817Z,100496.08
2018-03-22T17:06:38.393Z,100498.81
2018-03-22T17:09:08.979Z,100492.74
2018-03-22T17:11:39.468Z,100488.73
2018-03-22T17:14:08.019Z,100493.91
2018-03-22T17:16:36.578Z,100493.96
2018-03-22T17:19:05.153Z,100493.22
2018-03-22T17:21:33.919Z,100496.42
2018-03-22T17:24:03.148Z,100500.50
2018-03-22T17:26:31.876Z,100505.52
2018-03-22T17:29:01.694Z,100501.72
2018-03-22T17:31:31.141Z,100504.20
2018-03-22T17:33:59.715Z,100502.27
2018-03-22T17:36:29.244Z,100505.25
2018-03-22T17:38:57.728Z,100502.38
2018-03-22T17:41:26.251Z,100496.39
2018-03-22T17:43:54.746Z,100494.67
2018-03-22T17:46:24.323Z,100501.45
2018-03-22T17:48:53.480Z,100497.70
2018-03-22T17:51:23.002Z,100501.14
2018-03-22T17:53:52.879Z,100503.98
2018-03-22T17:56:22.578Z,100492.81
2018-03-22T17:58:54.632Z,100495.95
2018-03-22T18:01:25.135Z,100495.12
2018-03-22T18:03:55.241Z,100487.31
2018-03-22T18:06:24.639Z,100491.59
2018-03-22T18:08:54.001Z,100498.43
2018-03-22T18:11:23.318Z,100501.09
2018-03-22T18:13:52.666Z,100498.13
2018-03-22T18:16:22.792Z,100492.58
2018-03-22T18:18:52.301Z,100494.98
2018-03-22T18:21:22.193Z,100492.41
2018-03-22T18:23:52.795Z,100495.42
2018-03-22T18:26:23.940Z,100497.91
2018-03-22T18:28:54.236Z,100504.02
2018-03-22T18:31:25.755Z,100501.48
2018-03-22T18:34:07.507Z,100499.98
2018-03-22T18:36:36.653Z,100502.16
2018-03-22T18:39:06.611Z,100499.92
2018-03-22T18:41:39.716Z,100496.94
2018-03-22T18:44:09.579Z,100493.17
2018-03-22T18:46:40.102Z,100498.59
2018-03-22T18:49:10.799Z,100499.09
2018-03-22T18:51:40.727Z,100501.13
2018-03-22T18:54:11.454Z,100501.21
2018-03-22T18:56:41.122Z,100503.25
2018-03-22T18:59:14.895Z,100503.73
2018-03-22T19:01:45.427Z,100501.44
2018-03-22T19:04:17.698Z,100500.39
2018-03-22T19:06:49.511Z,100500.86
2018-03-22T19:09:20.235Z,100499.00
2018-03-22T19:11:50.834Z,100501.66
2018-03-22T19:14:22.690Z,100500.73
2018-03-22T19:16:52.808Z,100502.22
2018-03-22T19:19:23.038Z,100500.53
2018-03-22T19:21:52.159Z,100503.94
2018-03-22T19:24:22.440Z,100501.52
2018-03-22T19:26:51.757Z,100504.27
2018-03-22T19:29:22.588Z,100504.72
2018-03-22T19:31:55.882Z,100504.73
2018-03-22T19:34:25.474Z,100501.00
2018-03-22T19:36:57.555Z,100503.21
2018-03-22T19:39:28.776Z,100495.41
2018-03-22T19:42:00.026Z,100496.28
2018-03-22T19:44:50.504Z,100494.16
2018-03-22T19:47:20.474Z,100499.78
2018-03-22T19:49:50.004Z,100492.38
2018-03-22T19:52:20.758Z,100494.61
2018-03-22T19:54:56.532Z,100491.16
2018-03-22T19:57:31.258Z,100492.40
2018-03-22T20:00:01.280Z,100490.73
2018-03-22T20:02:33.066Z,100493.81
2018-03-22T20:05:06.160Z,100498.52
2018-03-22T20:07:38.863Z,100503.69
2018-03-22T20:12:48.668Z,100496.28
2018-03-22T20:15:18.640Z,100492.05
2018-03-22T20:17:48.286Z,100490.77
2018-03-22T20:20:17.724Z,100486.06
2018-03-22T20:22:47.261Z,100487.30
2018-03-22T20:25:18.352Z,100486.02
2018-03-22T20:27:47.859Z,100482.58
2018-03-22T20:30:16.506Z,100488.59
2018-03-22T20:32:45.097Z,100483.90
2018-03-22T20:35:15.553Z,100481.73
2018-03-22T20:37:45.896Z,100478.20
2018-03-22T20:40:15.250Z,100477.41
2018-03-22T20:42:44.775Z,100478.26
2018-03-22T20:45:14.566Z,100475.25
2018-03-22T20:47:43.090Z,100476.47
2018-03-22T20:50:12.472Z,100472.69
2018-03-22T20:52:42.834Z,100466.63
2018-03-22T20:55:12.343Z,100467.09
2018-03-22T20:57:41.879Z,100469.22
2018-03-22T21:00:11.028Z,100465.76
2018-03-22T21:02:40.062Z,100467.47
2018-03-22T21:05:10.803Z,100464.44
2018-03-22T21:10:13.730Z,100475.16
2018-03-22T21:12:47.634Z,100475.58
2018-03-22T21:15:19.240Z,100475.16
2018-03-22T21:17:54.140Z,100472.19
2018-03-22T21:20:23.748Z,100475.62
2018-03-22T21:22:58.229Z,100475.23
2018-03-22T21:25:28.025Z,100474.83
2018-03-22T21:27:57.221Z,100471.30
2018-03-22T21:30:26.864Z,100475.17
2018-03-22T21:32:56.556Z,100474.78
2018-03-22T21:35:26.155Z,100475.23
2018-03-22T21:37:57.823Z,100472.19
2018-03-22T21:40:32.813Z,100475.25
2018-03-22T21:43:01.499Z,100474.47
2018-03-22T21:45:30.289Z,100467.14
2018-03-22T21:47:59.642Z,100469.67
2018-03-22T21:50:46.498Z,100459.36
2018-03-22T21:53:15.158Z,100465.83
2018-03-22T21:55:44.489Z,100464.19
2018-03-22T21:58:16.878Z,100465.45
2018-03-22T22:00:45.487Z,100460.76
2018-03-22T22:03:15.017Z,100459.48
2018-03-22T22:05:43.567Z,100450.86
2018-03-22T22:08:12.741Z,100449.10
2018-03-22T22:10:42.203Z,100446.91
2018-03-22T22:13:17.980Z,100445.34
2018-03-22T22:15:48.309Z,100444.50
2018-03-22T22:18:18.840Z,100441.86
2018-03-22T22:20:47.175Z,100447.01
2018-03-22T22:23:15.637Z,100441.39
2018-03-22T22:25:43.967Z,100436.37
2018-03-22T22:28:12.588Z,100441.54
2018-03-22T22:30:41.057Z,100434.68
2018-03-22T22:33:12.024Z,100439.92
2018-03-22T22:35:43.675Z,100438.19
2018-03-22T22:38:13.128Z,100433.89
2018-03-22T22:40:51.388Z,100428.30
2018-03-22T22:43:21.910Z,100427.44
2018-03-22T22:45:50.125Z,100425.27
2018-03-22T22:48:17.804Z,100411.90
2018-03-22T22:50:47.402Z,100420.13
2018-03-22T22:53:15.821Z,100412.03
2018-03-22T22:55:44.424Z,100409.00
2018-03-22T22:58:12.404Z,100409.09
2018-03-22T23:00:40.158Z,100409.92
2018-03-22T23:03:08.993Z,100401.75
2018-03-22T23:05:36.435Z,100399.17
2018-03-22T23:08:05.521Z,100398.29
2018-03-22T23:10:36.446Z,100397.88
2018-03-22T23:13:03.989Z,100397.01
2018-03-22T23:15:32.527Z,100396.20
2018-03-22T23:18:01.003Z,100398.27
2018-03-22T23:20:33.001Z,100388.83
2018-03-22T23:22:59.643Z,100389.25
2018-03-22T23:25:34.615Z,100386.34
2018-03-22T23:28:05.150Z,100387.98
2018-03-22T23:30:35.116Z,100383.19
2018-03-22T23:33:03.664Z,100383.14
2018-03-22T23:35:35.130Z,100374.12
2018-03-22T23:38:04.001Z,100375.61
2018-03-22T23:40:35.373Z,100376.02
2018-03-22T23:43:02.109Z,100376.78
2018-03-22T23:45:31.620Z,100374.02
2018-03-22T23:48:00.193Z,100380.28
2018-03-22T23:50:27.933Z,100375.95
2018-03-22T23:52:55.405Z,100377.72
2018-03-22T23:55:22.113Z,100373.03
2018-03-22T23:57:48.894Z,100368.68
